Kettering, Ohio
Current Conditions -  °F | °C
As of 2:53 PM on Sunday 23 Nov 2014 (Local Time) from KMGY Reporting Station
Overcast Overcast  
Wind Chill: 15°   Ceiling: 5000
Heat Index: 15°   Visibility: 10mi
Dew Point:   Wind: 12mph
Humidity: 67%   Direction: 130°SE
Pressure: 29.68"   Gusts: NA
Location:  39.7°N, 84.16°W
Report Text: KMGY 231953Z AUTO 13010KT 10SM FEW042 OVC050 15/09 A2968 RMK AO2 SLP049 T01500089
Loading
Personal Weather Stations






























Interactive Weather Map New forecast layout! Learn more

10-Day Weather Forecast

Advertisements
Track Severe Weather on mobile